sensor_id;sensor_type;location;lat;lon;timestamp;P1;durP1;ratioP1;P2;durP2;ratioP2
35306;SDS011;21420;52.196;21.416;2023-05-02T00:00:54;10.10;;;6.10;;
35306;SDS011;21420;52.196;21.416;2023-05-02T00:03:20;12.70;;;6.80;;
35306;SDS011;21420;52.196;21.416;2023-05-02T00:05:48;11.50;;;6.20;;
35306;SDS011;21420;52.196;21.416;2023-05-02T00:08:15;12.00;;;6.70;;
35306;SDS011;21420;52.196;21.416;2023-05-02T00:10:42;12.20;;;6.70;;
35306;SDS011;21420;52.196;21.416;2023-05-02T00:13:08;11.10;;;6.90;;
35306;SDS011;21420;52.196;21.416;2023-05-02T00:15:35;13.90;;;6.50;;
35306;SDS011;21420;52.196;21.416;2023-05-02T00:18:02;11.50;;;6.90;;
35306;SDS011;21420;52.196;21.416;2023-05-02T00:20:29;11.80;;;6.80;;
35306;SDS011;21420;52.196;21.416;2023-05-02T00:22:55;14.20;;;6.80;;
35306;SDS011;21420;52.196;21.416;2023-05-02T00:25:22;13.90;;;6.90;;
35306;SDS011;21420;52.196;21.416;2023-05-02T00:27:49;13.20;;;6.70;;
35306;SDS011;21420;52.196;21.416;2023-05-02T00:30:16;13.40;;;6.90;;
35306;SDS011;21420;52.196;21.416;2023-05-02T00:32:44;11.60;;;6.50;;
35306;SDS011;21420;52.196;21.416;2023-05-02T00:35:11;13.40;;;5.80;;
35306;SDS011;21420;52.196;21.416;2023-05-02T00:37:37;9.60;;;6.40;;
35306;SDS011;21420;52.196;21.416;2023-05-02T00:40:05;8.60;;;6.00;;
35306;SDS011;21420;52.196;21.416;2023-05-02T00:42:33;10.50;;;6.70;;
35306;SDS011;21420;52.196;21.416;2023-05-02T00:45:05;10.50;;;6.80;;
35306;SDS011;21420;52.196;21.416;2023-05-02T00:47:32;10.50;;;6.30;;
35306;SDS011;21420;52.196;21.416;2023-05-02T00:50:00;11.00;;;6.70;;
35306;SDS011;21420;52.196;21.416;2023-05-02T00:52:27;12.00;;;6.20;;
35306;SDS011;21420;52.196;21.416;2023-05-02T00:54:54;10.10;;;6.00;;
35306;SDS011;21420;52.196;21.416;2023-05-02T00:57:21;11.40;;;6.30;;
35306;SDS011;21420;52.196;21.416;2023-05-02T00:59:49;9.90;;;5.90;;
35306;SDS011;21420;52.196;21.416;2023-05-02T01:02:29;12.10;;;6.00;;
35306;SDS011;21420;52.196;21.416;2023-05-02T01:07:59;12.60;;;6.40;;
35306;SDS011;21420;52.196;21.416;2023-05-02T01:10:47;9.80;;;6.20;;
35306;SDS011;21420;52.196;21.416;2023-05-02T01:13:25;13.00;;;6.80;;
35306;SDS011;21420;52.196;21.416;2023-05-02T01:15:56;10.00;;;6.10;;
35306;SDS011;21420;52.196;21.416;2023-05-02T01:18:25;10.40;;;6.00;;
35306;SDS011;21420;52.196;21.416;2023-05-02T01:20:59;11.30;;;5.90;;
35306;SDS011;21420;52.196;21.416;2023-05-02T01:23:37;8.70;;;5.00;;
35306;SDS011;21420;52.196;21.416;2023-05-02T01:29:00;9.50;;;5.60;;
35306;SDS011;21420;52.196;21.416;2023-05-02T01:31:33;10.90;;;6.20;;
35306;SDS011;21420;52.196;21.416;2023-05-02T01:34:03;14.20;;;8.30;;
35306;SDS011;21420;52.196;21.416;2023-05-02T01:36:32;10.10;;;6.50;;
35306;SDS011;21420;52.196;21.416;2023-05-02T01:39:01;11.40;;;6.60;;
35306;SDS011;21420;52.196;21.416;2023-05-02T01:41:30;13.40;;;6.80;;
35306;SDS011;21420;52.196;21.416;2023-05-02T01:43:58;10.60;;;6.90;;
35306;SDS011;21420;52.196;21.416;2023-05-02T01:46:29;11.40;;;6.70;;
35306;SDS011;21420;52.196;21.416;2023-05-02T01:49:01;13.40;;;7.00;;
35306;SDS011;21420;52.196;21.416;2023-05-02T01:51:32;13.10;;;6.90;;
35306;SDS011;21420;52.196;21.416;2023-05-02T01:54:01;13.80;;;7.00;;
35306;SDS011;21420;52.196;21.416;2023-05-02T01:56:31;13.40;;;7.30;;
35306;SDS011;21420;52.196;21.416;2023-05-02T01:59:01;11.90;;;6.90;;
35306;SDS011;21420;52.196;21.416;2023-05-02T02:01:31;11.10;;;6.30;;
35306;SDS011;21420;52.196;21.416;2023-05-02T02:04:00;11.10;;;6.70;;
35306;SDS011;21420;52.196;21.416;2023-05-02T02:06:29;14.40;;;7.30;;
35306;SDS011;21420;52.196;21.416;2023-05-02T02:08:57;10.40;;;6.20;;
35306;SDS011;21420;52.196;21.416;2023-05-02T02:11:26;8.60;;;5.60;;
35306;SDS011;21420;52.196;21.416;2023-05-02T02:14:01;13.20;;;6.20;;
35306;SDS011;21420;52.196;21.416;2023-05-02T02:16:52;11.00;;;5.80;;
35306;SDS011;21420;52.196;21.416;2023-05-02T02:19:21;12.00;;;5.80;;
35306;SDS011;21420;52.196;21.416;2023-05-02T02:21:49;11.60;;;6.40;;
35306;SDS011;21420;52.196;21.416;2023-05-02T02:24:17;13.40;;;6.00;;
35306;SDS011;21420;52.196;21.416;2023-05-02T02:26:48;10.70;;;5.40;;
35306;SDS011;21420;52.196;21.416;2023-05-02T02:29:14;12.90;;;6.40;;
35306;SDS011;21420;52.196;21.416;2023-05-02T02:31:41;9.50;;;5.90;;
35306;SDS011;21420;52.196;21.416;2023-05-02T02:34:08;13.40;;;5.80;;
35306;SDS011;21420;52.196;21.416;2023-05-02T02:36:38;9.40;;;5.60;;
35306;SDS011;21420;52.196;21.416;2023-05-02T02:45:07;8.60;;;5.70;;
35306;SDS011;21420;52.196;21.416;2023-05-02T02:47:49;11.60;;;5.80;;
35306;SDS011;21420;52.196;21.416;2023-05-02T02:50:26;13.10;;;6.80;;
35306;SDS011;21420;52.196;21.416;2023-05-02T02:53:16;16.70;;;6.70;;
35306;SDS011;21420;52.196;21.416;2023-05-02T02:55:47;12.10;;;6.20;;
35306;SDS011;21420;52.196;21.416;2023-05-02T03:01:20;8.80;;;5.60;;
35306;SDS011;21420;52.196;21.416;2023-05-02T03:03:50;11.60;;;4.80;;
35306;SDS011;21420;52.196;21.416;2023-05-02T03:06:18;11.00;;;5.40;;
35306;SDS011;21420;52.196;21.416;2023-05-02T03:08:46;11.10;;;4.90;;
35306;SDS011;21420;52.196;21.416;2023-05-02T03:11:15;7.60;;;4.60;;
35306;SDS011;21420;52.196;21.416;2023-05-02T03:13:42;9.70;;;4.90;;
35306;SDS011;21420;52.196;21.416;2023-05-02T03:18:54;7.80;;;5.20;;
35306;SDS011;21420;52.196;21.416;2023-05-02T03:21:21;8.60;;;4.70;;
35306;SDS011;21420;52.196;21.416;2023-05-02T03:23:48;10.40;;;4.90;;
35306;SDS011;21420;52.196;21.416;2023-05-02T03:26:15;9.90;;;5.30;;
35306;SDS011;21420;52.196;21.416;2023-05-02T03:28:43;13.00;;;5.40;;
35306;SDS011;21420;52.196;21.416;2023-05-02T03:31:15;9.20;;;4.90;;
35306;SDS011;21420;52.196;21.416;2023-05-02T03:33:42;14.00;;;5.30;;
35306;SDS011;21420;52.196;21.416;2023-05-02T03:36:08;10.20;;;4.60;;
35306;SDS011;21420;52.196;21.416;2023-05-02T03:38:36;7.50;;;4.80;;
35306;SDS011;21420;52.196;21.416;2023-05-02T03:41:04;9.40;;;4.50;;
35306;SDS011;21420;52.196;21.416;2023-05-02T03:43:31;10.30;;;4.70;;
35306;SDS011;21420;52.196;21.416;2023-05-02T03:46:02;12.30;;;5.00;;
35306;SDS011;21420;52.196;21.416;2023-05-02T03:48:34;7.30;;;4.30;;
35306;SDS011;21420;52.196;21.416;2023-05-02T03:51:01;13.50;;;5.70;;
35306;SDS011;21420;52.196;21.416;2023-05-02T03:53:36;7.40;;;4.80;;
35306;SDS011;21420;52.196;21.416;2023-05-02T03:56:03;10.00;;;5.20;;
35306;SDS011;21420;52.196;21.416;2023-05-02T03:58:33;9.70;;;4.70;;
35306;SDS011;21420;52.196;21.416;2023-05-02T04:01:02;7.90;;;4.80;;
35306;SDS011;21420;52.196;21.416;2023-05-02T04:03:29;11.00;;;5.10;;
35306;SDS011;21420;52.196;21.416;2023-05-02T04:05:57;9.10;;;5.40;;
35306;SDS011;21420;52.196;21.416;2023-05-02T04:08:24;13.60;;;5.50;;
35306;SDS011;21420;52.196;21.416;2023-05-02T04:10:51;10.00;;;5.10;;
35306;SDS011;21420;52.196;21.416;2023-05-02T04:13:18;8.10;;;5.00;;
35306;SDS011;21420;52.196;21.416;2023-05-02T04:15:46;13.70;;;5.60;;
35306;SDS011;21420;52.196;21.416;2023-05-02T04:18:16;9.80;;;4.80;;
35306;SDS011;21420;52.196;21.416;2023-05-02T04:20:43;9.50;;;4.40;;
35306;SDS011;21420;52.196;21.416;2023-05-02T04:23:12;13.10;;;5.20;;
35306;SDS011;21420;52.196;21.416;2023-05-02T04:25:40;10.50;;;4.90;;
35306;SDS011;21420;52.196;21.416;2023-05-02T04:28:06;8.10;;;4.10;;
35306;SDS011;21420;52.196;21.416;2023-05-02T04:30:33;10.00;;;4.60;;
35306;SDS011;21420;52.196;21.416;2023-05-02T04:33:06;9.70;;;5.00;;
35306;SDS011;21420;52.196;21.416;2023-05-02T04:35:34;14.10;;;4.90;;
35306;SDS011;21420;52.196;21.416;2023-05-02T04:38:02;8.30;;;4.70;;
35306;SDS011;21420;52.196;21.416;2023-05-02T04:40:29;9.00;;;4.50;;
35306;SDS011;21420;52.196;21.416;2023-05-02T04:43:00;9.50;;;4.70;;
35306;SDS011;21420;52.196;21.416;2023-05-02T04:45:34;7.70;;;4.30;;
35306;SDS011;21420;52.196;21.416;2023-05-02T04:48:04;7.40;;;4.00;;
35306;SDS011;21420;52.196;21.416;2023-05-02T04:50:31;9.70;;;4.90;;
35306;SDS011;21420;52.196;21.416;2023-05-02T04:52:58;11.50;;;4.70;;
35306;SDS011;21420;52.196;21.416;2023-05-02T04:55:25;8.70;;;4.90;;
35306;SDS011;21420;52.196;21.416;2023-05-02T04:57:52;6.90;;;4.30;;
35306;SDS011;21420;52.196;21.416;2023-05-02T05:00:19;9.40;;;4.70;;
35306;SDS011;21420;52.196;21.416;2023-05-02T05:02:47;9.20;;;4.20;;
35306;SDS011;21420;52.196;21.416;2023-05-02T05:05:14;11.00;;;4.30;;
35306;SDS011;21420;52.196;21.416;2023-05-02T05:07:41;9.30;;;4.40;;
35306;SDS011;21420;52.196;21.416;2023-05-02T05:10:09;8.30;;;4.60;;
35306;SDS011;21420;52.196;21.416;2023-05-02T05:12:44;9.00;;;4.60;;
35306;SDS011;21420;52.196;21.416;2023-05-02T05:15:13;10.90;;;4.60;;
35306;SDS011;21420;52.196;21.416;2023-05-02T05:17:44;8.90;;;4.40;;
35306;SDS011;21420;52.196;21.416;2023-05-02T05:20:11;9.70;;;4.70;;
35306;SDS011;21420;52.196;21.416;2023-05-02T05:22:38;10.60;;;5.20;;
35306;SDS011;21420;52.196;21.416;2023-05-02T05:25:06;10.50;;;4.90;;
35306;SDS011;21420;52.196;21.416;2023-05-02T05:27:34;11.20;;;6.00;;
35306;SDS011;21420;52.196;21.416;2023-05-02T05:30:01;10.00;;;5.50;;
35306;SDS011;21420;52.196;21.416;2023-05-02T05:32:31;8.80;;;4.90;;
35306;SDS011;21420;52.196;21.416;2023-05-02T05:34:58;10.70;;;5.70;;
35306;SDS011;21420;52.196;21.416;2023-05-02T05:37:26;8.80;;;4.50;;
35306;SDS011;21420;52.196;21.416;2023-05-02T05:39:53;9.40;;;4.60;;
35306;SDS011;21420;52.196;21.416;2023-05-02T05:42:21;12.80;;;5.00;;
35306;SDS011;21420;52.196;21.416;2023-05-02T05:44:50;9.00;;;5.20;;
35306;SDS011;21420;52.196;21.416;2023-05-02T05:47:20;8.50;;;4.70;;
35306;SDS011;21420;52.196;21.416;2023-05-02T05:49:52;9.10;;;5.10;;
35306;SDS011;21420;52.196;21.416;2023-05-02T05:52:19;7.00;;;4.50;;
35306;SDS011;21420;52.196;21.416;2023-05-02T05:54:46;10.10;;;4.20;;
35306;SDS011;21420;52.196;21.416;2023-05-02T05:57:13;10.70;;;4.60;;
35306;SDS011;21420;52.196;21.416;2023-05-02T05:59:40;9.00;;;4.60;;
35306;SDS011;21420;52.196;21.416;2023-05-02T06:02:07;7.50;;;4.00;;
35306;SDS011;21420;52.196;21.416;2023-05-02T06:04:34;11.70;;;4.40;;
35306;SDS011;21420;52.196;21.416;2023-05-02T06:07:01;9.40;;;4.30;;
35306;SDS011;21420;52.196;21.416;2023-05-02T06:09:28;10.20;;;4.50;;
35306;SDS011;21420;52.196;21.416;2023-05-02T06:11:54;8.60;;;4.60;;
35306;SDS011;21420;52.196;21.416;2023-05-02T06:14:21;9.00;;;4.70;;
35306;SDS011;21420;52.196;21.416;2023-05-02T06:16:48;6.20;;;4.30;;
35306;SDS011;21420;52.196;21.416;2023-05-02T06:19:14;10.90;;;4.20;;
35306;SDS011;21420;52.196;21.416;2023-05-02T06:21:41;9.30;;;4.70;;
35306;SDS011;21420;52.196;21.416;2023-05-02T06:24:08;6.50;;;4.00;;
35306;SDS011;21420;52.196;21.416;2023-05-02T06:26:35;9.70;;;4.30;;
35306;SDS011;21420;52.196;21.416;2023-05-02T06:29:02;6.80;;;3.60;;
35306;SDS011;21420;52.196;21.416;2023-05-02T06:31:28;10.60;;;4.50;;
35306;SDS011;21420;52.196;21.416;2023-05-02T06:33:55;8.60;;;4.20;;
35306;SDS011;21420;52.196;21.416;2023-05-02T06:36:22;8.80;;;4.10;;
35306;SDS011;21420;52.196;21.416;2023-05-02T06:38:48;5.40;;;4.10;;
35306;SDS011;21420;52.196;21.416;2023-05-02T06:41:15;9.50;;;4.80;;
35306;SDS011;21420;52.196;21.416;2023-05-02T06:43:43;6.60;;;4.20;;
35306;SDS011;21420;52.196;21.416;2023-05-02T06:46:10;6.10;;;3.70;;
35306;SDS011;21420;52.196;21.416;2023-05-02T06:48:37;9.20;;;4.20;;
35306;SDS011;21420;52.196;21.416;2023-05-02T06:51:04;5.80;;;3.90;;
35306;SDS011;21420;52.196;21.416;2023-05-02T06:53:30;7.10;;;4.00;;
35306;SDS011;21420;52.196;21.416;2023-05-02T06:55:58;6.40;;;3.90;;
35306;SDS011;21420;52.196;21.416;2023-05-02T06:58:25;8.50;;;3.70;;
35306;SDS011;21420;52.196;21.416;2023-05-02T07:00:52;3.90;;;3.30;;
35306;SDS011;21420;52.196;21.416;2023-05-02T07:03:18;7.10;;;4.50;;
35306;SDS011;21420;52.196;21.416;2023-05-02T07:05:45;7.50;;;3.40;;
35306;SDS011;21420;52.196;21.416;2023-05-02T07:08:12;7.50;;;3.90;;
35306;SDS011;21420;52.196;21.416;2023-05-02T07:10:38;6.80;;;3.70;;
35306;SDS011;21420;52.196;21.416;2023-05-02T07:13:05;8.80;;;4.40;;
35306;SDS011;21420;52.196;21.416;2023-05-02T07:15:32;6.60;;;2.80;;
35306;SDS011;21420;52.196;21.416;2023-05-02T07:17:58;4.60;;;3.30;;
35306;SDS011;21420;52.196;21.416;2023-05-02T07:20:25;10.60;;;3.10;;
35306;SDS011;21420;52.196;21.416;2023-05-02T07:22:52;6.10;;;3.40;;
35306;SDS011;21420;52.196;21.416;2023-05-02T07:25:19;4.10;;;3.50;;
35306;SDS011;21420;52.196;21.416;2023-05-02T07:27:46;8.70;;;3.40;;
35306;SDS011;21420;52.196;21.416;2023-05-02T07:30:13;7.30;;;3.50;;
35306;SDS011;21420;52.196;21.416;2023-05-02T07:32:39;4.40;;;3.30;;
35306;SDS011;21420;52.196;21.416;2023-05-02T07:35:06;4.20;;;3.20;;
35306;SDS011;21420;52.196;21.416;2023-05-02T07:37:34;5.70;;;3.50;;
35306;SDS011;21420;52.196;21.416;2023-05-02T07:40:00;6.00;;;3.60;;
35306;SDS011;21420;52.196;21.416;2023-05-02T07:42:30;5.70;;;3.40;;
35306;SDS011;21420;52.196;21.416;2023-05-02T07:44:57;4.30;;;3.60;;
35306;SDS011;21420;52.196;21.416;2023-05-02T07:47:24;4.10;;;3.10;;
35306;SDS011;21420;52.196;21.416;2023-05-02T07:49:55;7.50;;;3.10;;
35306;SDS011;21420;52.196;21.416;2023-05-02T07:52:21;5.20;;;3.10;;
35306;SDS011;21420;52.196;21.416;2023-05-02T07:54:48;4.60;;;3.30;;
35306;SDS011;21420;52.196;21.416;2023-05-02T07:57:16;4.10;;;3.40;;
35306;SDS011;21420;52.196;21.416;2023-05-02T07:59:43;5.70;;;3.80;;
35306;SDS011;21420;52.196;21.416;2023-05-02T08:02:10;5.20;;;3.20;;
35306;SDS011;21420;52.196;21.416;2023-05-02T08:04:39;4.90;;;3.10;;
35306;SDS011;21420;52.196;21.416;2023-05-02T08:07:06;4.10;;;3.20;;
35306;SDS011;21420;52.196;21.416;2023-05-02T08:09:33;5.60;;;3.10;;
35306;SDS011;21420;52.196;21.416;2023-05-02T08:12:00;3.90;;;2.80;;
35306;SDS011;21420;52.196;21.416;2023-05-02T08:14:28;5.30;;;3.40;;
35306;SDS011;21420;52.196;21.416;2023-05-02T08:16:55;4.10;;;3.00;;
35306;SDS011;21420;52.196;21.416;2023-05-02T08:19:21;4.20;;;2.90;;
35306;SDS011;21420;52.196;21.416;2023-05-02T08:21:48;5.70;;;3.10;;
35306;SDS011;21420;52.196;21.416;2023-05-02T08:24:14;9.80;;;3.10;;
35306;SDS011;21420;52.196;21.416;2023-05-02T08:26:41;5.80;;;2.80;;
35306;SDS011;21420;52.196;21.416;2023-05-02T08:29:08;6.00;;;3.00;;
35306;SDS011;21420;52.196;21.416;2023-05-02T08:31:37;3.10;;;2.30;;
35306;SDS011;21420;52.196;21.416;2023-05-02T08:34:05;4.50;;;2.50;;
35306;SDS011;21420;52.196;21.416;2023-05-02T08:36:32;4.30;;;2.50;;
35306;SDS011;21420;52.196;21.416;2023-05-02T08:38:59;3.80;;;2.40;;
35306;SDS011;21420;52.196;21.416;2023-05-02T08:41:26;4.30;;;2.80;;
35306;SDS011;21420;52.196;21.416;2023-05-02T08:43:54;3.50;;;1.80;;
35306;SDS011;21420;52.196;21.416;2023-05-02T08:46:22;2.90;;;2.10;;
35306;SDS011;21420;52.196;21.416;2023-05-02T08:48:49;2.80;;;2.20;;
35306;SDS011;21420;52.196;21.416;2023-05-02T08:51:17;3.00;;;2.00;;
35306;SDS011;21420;52.196;21.416;2023-05-02T08:53:45;7.40;;;2.40;;
35306;SDS011;21420;52.196;21.416;2023-05-02T08:56:12;2.60;;;2.00;;
35306;SDS011;21420;52.196;21.416;2023-05-02T08:58:39;6.10;;;2.20;;
35306;SDS011;21420;52.196;21.416;2023-05-02T09:01:16;2.50;;;2.00;;
35306;SDS011;21420;52.196;21.416;2023-05-02T09:03:45;3.20;;;2.10;;
35306;SDS011;21420;52.196;21.416;2023-05-02T09:06:17;2.70;;;2.10;;
35306;SDS011;21420;52.196;21.416;2023-05-02T09:08:47;2.90;;;1.90;;
35306;SDS011;21420;52.196;21.416;2023-05-02T09:11:15;4.40;;;2.60;;
35306;SDS011;21420;52.196;21.416;2023-05-02T09:13:46;6.40;;;2.50;;
35306;SDS011;21420;52.196;21.416;2023-05-02T09:16:15;4.10;;;2.10;;
35306;SDS011;21420;52.196;21.416;2023-05-02T09:18:50;3.60;;;2.20;;
35306;SDS011;21420;52.196;21.416;2023-05-02T09:21:23;3.60;;;2.20;;
35306;SDS011;21420;52.196;21.416;2023-05-02T09:23:53;2.40;;;1.80;;
35306;SDS011;21420;52.196;21.416;2023-05-02T09:28:51;3.40;;;2.30;;
35306;SDS011;21420;52.196;21.416;2023-05-02T09:31:22;2.80;;;2.00;;
35306;SDS011;21420;52.196;21.416;2023-05-02T09:34:19;4.00;;;2.20;;
35306;SDS011;21420;52.196;21.416;2023-05-02T09:36:47;3.00;;;2.30;;
35306;SDS011;21420;52.196;21.416;2023-05-02T09:39:21;4.60;;;2.70;;
35306;SDS011;21420;52.196;21.416;2023-05-02T09:41:52;3.90;;;2.20;;
35306;SDS011;21420;52.196;21.416;2023-05-02T09:44:21;3.00;;;2.20;;
35306;SDS011;21420;52.196;21.416;2023-05-02T09:46:52;2.60;;;2.30;;
35306;SDS011;21420;52.196;21.416;2023-05-02T09:52:13;3.40;;;1.90;;
35306;SDS011;21420;52.196;21.416;2023-05-02T09:54:41;3.40;;;2.20;;
35306;SDS011;21420;52.196;21.416;2023-05-02T09:57:08;2.60;;;2.40;;
35306;SDS011;21420;52.196;21.416;2023-05-02T09:59:37;2.60;;;2.40;;
35306;SDS011;21420;52.196;21.416;2023-05-02T10:02:05;5.60;;;2.60;;
35306;SDS011;21420;52.196;21.416;2023-05-02T10:04:35;2.60;;;2.10;;
35306;SDS011;21420;52.196;21.416;2023-05-02T10:07:02;4.70;;;2.70;;
35306;SDS011;21420;52.196;21.416;2023-05-02T10:09:29;3.80;;;2.70;;
35306;SDS011;21420;52.196;21.416;2023-05-02T10:12:00;5.20;;;2.50;;
35306;SDS011;21420;52.196;21.416;2023-05-02T10:14:38;4.60;;;2.60;;
35306;SDS011;21420;52.196;21.416;2023-05-02T10:17:14;6.00;;;2.90;;
35306;SDS011;21420;52.196;21.416;2023-05-02T10:19:53;4.20;;;2.60;;
35306;SDS011;21420;52.196;21.416;2023-05-02T10:22:21;4.30;;;2.80;;
35306;SDS011;21420;52.196;21.416;2023-05-02T10:24:48;5.00;;;3.10;;
35306;SDS011;21420;52.196;21.416;2023-05-02T10:27:15;4.30;;;3.00;;
35306;SDS011;21420;52.196;21.416;2023-05-02T10:29:42;6.00;;;3.00;;
35306;SDS011;21420;52.196;21.416;2023-05-02T10:32:09;3.20;;;2.90;;
35306;SDS011;21420;52.196;21.416;2023-05-02T10:34:36;4.00;;;2.70;;
35306;SDS011;21420;52.196;21.416;2023-05-02T10:37:04;3.80;;;3.00;;
35306;SDS011;21420;52.196;21.416;2023-05-02T10:39:31;5.20;;;3.50;;
35306;SDS011;21420;52.196;21.416;2023-05-02T10:41:58;5.00;;;3.10;;
35306;SDS011;21420;52.196;21.416;2023-05-02T10:44:33;3.70;;;3.00;;
35306;SDS011;21420;52.196;21.416;2023-05-02T10:47:17;3.80;;;3.30;;
35306;SDS011;21420;52.196;21.416;2023-05-02T10:49:58;6.20;;;3.40;;
35306;SDS011;21420;52.196;21.416;2023-05-02T10:52:28;3.80;;;3.50;;
35306;SDS011;21420;52.196;21.416;2023-05-02T10:55:13;4.70;;;4.00;;
35306;SDS011;21420;52.196;21.416;2023-05-02T11:00:28;7.50;;;4.90;;
35306;SDS011;21420;52.196;21.416;2023-05-02T11:02:58;7.30;;;4.70;;
35306;SDS011;21420;52.196;21.416;2023-05-02T11:05:26;8.90;;;5.20;;
35306;SDS011;21420;52.196;21.416;2023-05-02T11:10:45;9.40;;;5.20;;
35306;SDS011;21420;52.196;21.416;2023-05-02T11:13:12;8.80;;;5.80;;
35306;SDS011;21420;52.196;21.416;2023-05-02T11:18:06;9.40;;;5.00;;
35306;SDS011;21420;52.196;21.416;2023-05-02T11:20:35;10.20;;;6.10;;
35306;SDS011;21420;52.196;21.416;2023-05-02T11:34:00;9.50;;;5.70;;
35306;SDS011;21420;52.196;21.416;2023-05-02T11:36:31;12.10;;;8.60;;
35306;SDS011;21420;52.196;21.416;2023-05-02T11:39:00;11.60;;;7.70;;
35306;SDS011;21420;52.196;21.416;2023-05-02T11:41:41;14.10;;;8.90;;
35306;SDS011;21420;52.196;21.416;2023-05-02T11:44:08;15.20;;;8.10;;
35306;SDS011;21420;52.196;21.416;2023-05-02T11:46:35;15.20;;;9.40;;
35306;SDS011;21420;52.196;21.416;2023-05-02T11:49:03;14.60;;;10.30;;
35306;SDS011;21420;52.196;21.416;2023-05-02T11:51:34;17.00;;;10.70;;
35306;SDS011;21420;52.196;21.416;2023-05-02T11:54:01;10.30;;;8.90;;
35306;SDS011;21420;52.196;21.416;2023-05-02T11:56:29;14.70;;;7.90;;
35306;SDS011;21420;52.196;21.416;2023-05-02T11:59:05;14.20;;;7.00;;
35306;SDS011;21420;52.196;21.416;2023-05-02T12:01:33;9.20;;;5.40;;
35306;SDS011;21420;52.196;21.416;2023-05-02T12:04:00;8.10;;;4.30;;
35306;SDS011;21420;52.196;21.416;2023-05-02T12:06:28;6.30;;;4.90;;
35306;SDS011;21420;52.196;21.416;2023-05-02T12:09:05;5.70;;;4.30;;
35306;SDS011;21420;52.196;21.416;2023-05-02T12:11:33;6.00;;;4.80;;
35306;SDS011;21420;52.196;21.416;2023-05-02T12:14:01;11.20;;;5.00;;
35306;SDS011;21420;52.196;21.416;2023-05-02T12:16:29;7.80;;;5.00;;
35306;SDS011;21420;52.196;21.416;2023-05-02T12:18:56;6.00;;;5.20;;
35306;SDS011;21420;52.196;21.416;2023-05-02T12:21:27;7.20;;;5.30;;
35306;SDS011;21420;52.196;21.416;2023-05-02T12:23:55;5.70;;;5.10;;
35306;SDS011;21420;52.196;21.416;2023-05-02T12:26:23;6.10;;;5.20;;
35306;SDS011;21420;52.196;21.416;2023-05-02T12:28:54;6.40;;;5.20;;
35306;SDS011;21420;52.196;21.416;2023-05-02T12:31:22;8.30;;;4.80;;
35306;SDS011;21420;52.196;21.416;2023-05-02T12:33:50;5.60;;;5.10;;
35306;SDS011;21420;52.196;21.416;2023-05-02T12:36:18;7.00;;;5.20;;
35306;SDS011;21420;52.196;21.416;2023-05-02T12:38:51;6.00;;;5.30;;
35306;SDS011;21420;52.196;21.416;2023-05-02T12:41:30;5.60;;;4.80;;
35306;SDS011;21420;52.196;21.416;2023-05-02T12:43:58;5.80;;;5.20;;
35306;SDS011;21420;52.196;21.416;2023-05-02T12:46:26;5.90;;;5.30;;
35306;SDS011;21420;52.196;21.416;2023-05-02T12:49:00;7.60;;;5.50;;
35306;SDS011;21420;52.196;21.416;2023-05-02T12:51:31;7.00;;;6.30;;
35306;SDS011;21420;52.196;21.416;2023-05-02T12:53:58;7.10;;;6.40;;
35306;SDS011;21420;52.196;21.416;2023-05-02T12:56:25;6.70;;;6.00;;
35306;SDS011;21420;52.196;21.416;2023-05-02T12:58:57;7.80;;;6.20;;
35306;SDS011;21420;52.196;21.416;2023-05-02T13:01:31;9.00;;;6.20;;
35306;SDS011;21420;52.196;21.416;2023-05-02T13:03:59;8.70;;;6.70;;
35306;SDS011;21420;52.196;21.416;2023-05-02T13:06:26;13.00;;;7.00;;
35306;SDS011;21420;52.196;21.416;2023-05-02T13:08:53;8.80;;;6.70;;
35306;SDS011;21420;52.196;21.416;2023-05-02T13:11:19;9.40;;;7.30;;
35306;SDS011;21420;52.196;21.416;2023-05-02T13:13:46;7.50;;;6.60;;
35306;SDS011;21420;52.196;21.416;2023-05-02T13:16:13;10.00;;;7.20;;
35306;SDS011;21420;52.196;21.416;2023-05-02T13:18:40;8.50;;;7.00;;
35306;SDS011;21420;52.196;21.416;2023-05-02T13:21:07;8.90;;;7.00;;
35306;SDS011;21420;52.196;21.416;2023-05-02T13:23:33;10.10;;;7.60;;
35306;SDS011;21420;52.196;21.416;2023-05-02T13:26:00;8.10;;;6.90;;
35306;SDS011;21420;52.196;21.416;2023-05-02T13:28:27;9.30;;;7.50;;
35306;SDS011;21420;52.196;21.416;2023-05-02T13:30:58;9.40;;;7.80;;
35306;SDS011;21420;52.196;21.416;2023-05-02T13:33:25;12.20;;;7.90;;
35306;SDS011;21420;52.196;21.416;2023-05-02T13:35:51;8.90;;;7.80;;
35306;SDS011;21420;52.196;21.416;2023-05-02T13:38:18;9.50;;;8.50;;
35306;SDS011;21420;52.196;21.416;2023-05-02T13:40:45;10.90;;;8.70;;
35306;SDS011;21420;52.196;21.416;2023-05-02T13:43:11;9.50;;;8.20;;
35306;SDS011;21420;52.196;21.416;2023-05-02T13:45:38;11.70;;;9.50;;
35306;SDS011;21420;52.196;21.416;2023-05-02T13:48:05;12.00;;;8.90;;
35306;SDS011;21420;52.196;21.416;2023-05-02T13:50:31;12.00;;;9.50;;
35306;SDS011;21420;52.196;21.416;2023-05-02T13:53:02;10.30;;;8.60;;
35306;SDS011;21420;52.196;21.416;2023-05-02T13:55:29;10.50;;;9.40;;
35306;SDS011;21420;52.196;21.416;2023-05-02T13:57:55;10.70;;;9.50;;
35306;SDS011;21420;52.196;21.416;2023-05-02T14:00:22;12.10;;;9.60;;
35306;SDS011;21420;52.196;21.416;2023-05-02T14:02:48;12.20;;;9.80;;
35306;SDS011;21420;52.196;21.416;2023-05-02T14:05:15;12.60;;;9.80;;
35306;SDS011;21420;52.196;21.416;2023-05-02T14:07:42;11.40;;;9.10;;
35306;SDS011;21420;52.196;21.416;2023-05-02T14:10:09;9.80;;;8.70;;
35306;SDS011;21420;52.196;21.416;2023-05-02T14:12:36;7.70;;;5.80;;
35306;SDS011;21420;52.196;21.416;2023-05-02T14:15:02;8.90;;;5.80;;
35306;SDS011;21420;52.196;21.416;2023-05-02T14:17:29;8.50;;;6.00;;
35306;SDS011;21420;52.196;21.416;2023-05-02T14:19:57;7.30;;;5.30;;
35306;SDS011;21420;52.196;21.416;2023-05-02T14:22:24;7.00;;;5.20;;
35306;SDS011;21420;52.196;21.416;2023-05-02T14:24:51;6.20;;;5.30;;
35306;SDS011;21420;52.196;21.416;2023-05-02T14:27:17;7.20;;;4.90;;
35306;SDS011;21420;52.196;21.416;2023-05-02T14:29:44;7.50;;;5.00;;
35306;SDS011;21420;52.196;21.416;2023-05-02T14:32:12;8.00;;;5.40;;
35306;SDS011;21420;52.196;21.416;2023-05-02T14:34:39;6.30;;;4.70;;
35306;SDS011;21420;52.196;21.416;2023-05-02T14:37:06;6.90;;;5.20;;
35306;SDS011;21420;52.196;21.416;2023-05-02T14:39:34;9.90;;;5.10;;
35306;SDS011;21420;52.196;21.416;2023-05-02T14:42:02;6.30;;;4.20;;
35306;SDS011;21420;52.196;21.416;2023-05-02T14:44:30;6.50;;;4.00;;
35306;SDS011;21420;52.196;21.416;2023-05-02T14:46:57;7.00;;;4.00;;
35306;SDS011;21420;52.196;21.416;2023-05-02T14:49:24;4.70;;;4.20;;
35306;SDS011;21420;52.196;21.416;2023-05-02T14:51:52;5.00;;;4.00;;
35306;SDS011;21420;52.196;21.416;2023-05-02T14:54:24;6.40;;;4.10;;
35306;SDS011;21420;52.196;21.416;2023-05-02T14:56:52;7.70;;;5.40;;
35306;SDS011;21420;52.196;21.416;2023-05-02T14:59:19;9.70;;;5.50;;
35306;SDS011;21420;52.196;21.416;2023-05-02T15:01:46;8.40;;;5.40;;
35306;SDS011;21420;52.196;21.416;2023-05-02T15:04:13;8.30;;;4.70;;
35306;SDS011;21420;52.196;21.416;2023-05-02T15:06:40;7.00;;;5.30;;
35306;SDS011;21420;52.196;21.416;2023-05-02T15:09:07;5.60;;;4.60;;
35306;SDS011;21420;52.196;21.416;2023-05-02T15:11:34;9.30;;;5.00;;
35306;SDS011;21420;52.196;21.416;2023-05-02T15:14:00;9.70;;;5.80;;
35306;SDS011;21420;52.196;21.416;2023-05-02T15:16:27;7.40;;;4.90;;
35306;SDS011;21420;52.196;21.416;2023-05-02T15:18:55;8.70;;;5.10;;
35306;SDS011;21420;52.196;21.416;2023-05-02T15:21:21;7.10;;;4.60;;